sensor_id;sensor_type;location;lat;lon;timestamp;pressure;altitude;pressure_sealevel;temperature;humidity
75418;BME280;63997;52.112;5.420;2023-04-10T00:00:33;102253.03;;;7.39;74.05
75418;BME280;63997;52.112;5.420;2023-04-10T00:03:01;102248.28;;;7.41;74.25
75418;BME280;63997;52.112;5.420;2023-04-10T00:05:29;102238.75;;;7.45;73.93
75418;BME280;63997;52.112;5.420;2023-04-10T00:07:55;102228.16;;;7.50;73.64
75418;BME280;63997;52.112;5.420;2023-04-10T00:10:22;102229.50;;;7.53;73.76
75418;BME280;63997;52.112;5.420;2023-04-10T00:12:51;102228.44;;;7.54;73.67
75418;BME280;63997;52.112;5.420;2023-04-10T00:15:19;102228.44;;;7.59;73.64
75418;BME280;63997;52.112;5.420;2023-04-10T00:17:45;102228.44;;;7.59;73.23
75418;BME280;63997;52.112;5.420;2023-04-10T00:20:11;102226.59;;;7.54;73.34
75418;BME280;63997;52.112;5.420;2023-04-10T00:22:38;102227.38;;;7.50;73.20
75418;BME280;63997;52.112;5.420;2023-04-10T00:25:04;102217.06;;;7.43;73.28
75418;BME280;63997;52.112;5.420;2023-04-10T00:27:32;102206.72;;;7.36;73.25
75418;BME280;63997;52.112;5.420;2023-04-10T00:29:59;102210.16;;;7.32;73.21
75418;BME280;63997;52.112;5.420;2023-04-10T00:32:25;102206.44;;;7.33;73.36
75418;BME280;63997;52.112;5.420;2023-04-10T00:34:52;102198.00;;;7.31;73.30
75418;BME280;63997;52.112;5.420;2023-04-10T00:37:18;102191.91;;;7.30;73.68
75418;BME280;63997;52.112;5.420;2023-04-10T00:39:45;102189.00;;;7.32;73.45
75418;BME280;63997;52.112;5.420;2023-04-10T00:42:11;102190.56;;;7.33;73.27
75418;BME280;63997;52.112;5.420;2023-04-10T00:44:38;102183.16;;;7.25;73.39
75418;BME280;63997;52.112;5.420;2023-04-10T00:47:04;102181.03;;;7.27;73.34
75418;BME280;63997;52.112;5.420;2023-04-10T00:49:32;102187.41;;;7.31;73.56
75418;BME280;63997;52.112;5.420;2023-04-10T00:51:59;102188.44;;;7.35;73.51
75418;BME280;63997;52.112;5.420;2023-04-10T00:54:25;102177.06;;;7.34;73.68
75418;BME280;63997;52.112;5.420;2023-04-10T00:56:52;102174.19;;;7.36;73.71
75418;BME280;63997;52.112;5.420;2023-04-10T00:59:18;102169.94;;;7.30;73.91
75418;BME280;63997;52.112;5.420;2023-04-10T01:01:45;102172.03;;;7.28;73.76
75418;BME280;63997;52.112;5.420;2023-04-10T01:04:11;102168.63;;;7.32;73.74
75418;BME280;63997;52.112;5.420;2023-04-10T01:06:53;102170.47;;;7.27;73.84
75418;BME280;63997;52.112;5.420;2023-04-10T01:09:33;102176.28;;;7.29;73.85
75418;BME280;63997;52.112;5.420;2023-04-10T01:15:11;102165.16;;;7.27;74.23
75418;BME280;63997;52.112;5.420;2023-04-10T01:17:45;102160.38;;;7.24;75.06
75418;BME280;63997;52.112;5.420;2023-04-10T01:20:20;102160.94;;;7.21;74.61
75418;BME280;63997;52.112;5.420;2023-04-10T01:26:05;102147.44;;;7.27;74.38
75418;BME280;63997;52.112;5.420;2023-04-10T01:31:28;102139.78;;;7.26;74.24
75418;BME280;63997;52.112;5.420;2023-04-10T01:34:04;102140.56;;;7.26;74.02
75418;BME280;63997;52.112;5.420;2023-04-10T01:36:35;102133.94;;;7.29;73.98
75418;BME280;63997;52.112;5.420;2023-04-10T01:39:04;102135.28;;;7.31;74.19
75418;BME280;63997;52.112;5.420;2023-04-10T01:41:32;102135.53;;;7.30;74.21
75418;BME280;63997;52.112;5.420;2023-04-10T01:44:01;102126.56;;;7.36;74.11
75418;BME280;63997;52.112;5.420;2023-04-10T01:46:29;102128.13;;;7.37;74.27
75418;BME280;63997;52.112;5.420;2023-04-10T01:48:59;102118.59;;;7.36;74.35
75418;BME280;63997;52.112;5.420;2023-04-10T01:51:29;102121.50;;;7.39;74.43
75418;BME280;63997;52.112;5.420;2023-04-10T01:53:55;102122.03;;;7.47;74.45
75418;BME280;63997;52.112;5.420;2023-04-10T01:56:22;102124.41;;;7.53;74.64
75418;BME280;63997;52.112;5.420;2023-04-10T01:58:49;102123.34;;;7.54;74.64
75418;BME280;63997;52.112;5.420;2023-04-10T02:01:21;102121.22;;;7.56;74.67
75418;BME280;63997;52.112;5.420;2023-04-10T02:03:56;102117.00;;;7.60;74.70
75418;BME280;63997;52.112;5.420;2023-04-10T02:07:02;102115.66;;;7.63;74.49
75418;BME280;63997;52.112;5.420;2023-04-10T02:10:08;102108.75;;;7.67;74.50
75418;BME280;63997;52.112;5.420;2023-04-10T02:12:52;102109.31;;;7.69;74.34
75418;BME280;63997;52.112;5.420;2023-04-10T02:15:22;102106.91;;;7.67;74.00
75418;BME280;63997;52.112;5.420;2023-04-10T02:17:50;102105.84;;;7.74;74.11
75418;BME280;63997;52.112;5.420;2023-04-10T02:20:17;102100.81;;;7.72;74.26
75418;BME280;63997;52.112;5.420;2023-04-10T02:22:44;102106.38;;;7.76;74.19
75418;BME280;63997;52.112;5.420;2023-04-10T02:25:11;102099.75;;;7.73;74.24
75418;BME280;63997;52.112;5.420;2023-04-10T02:27:38;102104.78;;;7.75;74.27
75418;BME280;63997;52.112;5.420;2023-04-10T02:30:04;102103.72;;;7.76;74.11
75418;BME280;63997;52.112;5.420;2023-04-10T02:32:32;102096.84;;;7.75;74.08
75418;BME280;63997;52.112;5.420;2023-04-10T02:34:59;102102.41;;;7.73;74.19
75418;BME280;63997;52.112;5.420;2023-04-10T02:37:25;102097.88;;;7.74;74.15
75418;BME280;63997;52.112;5.420;2023-04-10T02:39:53;102096.06;;;7.69;74.03
75418;BME280;63997;52.112;5.420;2023-04-10T02:42:22;102105.31;;;7.66;74.27
75418;BME280;63997;52.112;5.420;2023-04-10T02:44:48;102104.81;;;7.64;74.31
75418;BME280;63997;52.112;5.420;2023-04-10T02:47:15;102101.38;;;7.64;74.62
75418;BME280;63997;52.112;5.420;2023-04-10T02:49:41;102101.09;;;7.60;74.26
75418;BME280;63997;52.112;5.420;2023-04-10T02:52:08;102099.53;;;7.59;74.26
75418;BME280;63997;52.112;5.420;2023-04-10T02:54:34;102098.19;;;7.62;74.34
75418;BME280;63997;52.112;5.420;2023-04-10T02:57:01;102096.31;;;7.57;74.53
75418;BME280;63997;52.112;5.420;2023-04-10T02:59:27;102092.88;;;7.57;73.99
75418;BME280;63997;52.112;5.420;2023-04-10T03:01:54;102096.31;;;7.57;74.29
75418;BME280;63997;52.112;5.420;2023-04-10T03:04:20;102104.28;;;7.57;74.46
75418;BME280;63997;52.112;5.420;2023-04-10T03:06:47;102100.03;;;7.56;74.03
75418;BME280;63997;52.112;5.420;2023-04-10T03:09:13;102107.97;;;7.56;74.23
75418;BME280;63997;52.112;5.420;2023-04-10T03:11:40;102105.88;;;7.53;74.25
75418;BME280;63997;52.112;5.420;2023-04-10T03:14:07;102105.63;;;7.55;74.16
75418;BME280;63997;52.112;5.420;2023-04-10T03:16:34;102105.09;;;7.53;74.21
75418;BME280;63997;52.112;5.420;2023-04-10T03:19:01;102105.88;;;7.48;74.19
75418;BME280;63997;52.112;5.420;2023-04-10T03:21:27;102108.00;;;7.46;74.34
75418;BME280;63997;52.112;5.420;2023-04-10T03:23:55;102102.19;;;7.44;74.52
75418;BME280;63997;52.112;5.420;2023-04-10T03:26:22;102103.53;;;7.41;74.54
75418;BME280;63997;52.112;5.420;2023-04-10T03:28:50;102105.38;;;7.41;74.48
75418;BME280;63997;52.112;5.420;2023-04-10T03:31:18;102103.25;;;7.38;74.51
75418;BME280;63997;52.112;5.420;2023-04-10T03:33:45;102094.00;;;7.35;74.65
75418;BME280;63997;52.112;5.420;2023-04-10T03:36:11;102095.31;;;7.33;74.66
75418;BME280;63997;52.112;5.420;2023-04-10T03:38:38;102095.59;;;7.31;74.59
75418;BME280;63997;52.112;5.420;2023-04-10T03:41:05;102088.94;;;7.29;74.61
75418;BME280;63997;52.112;5.420;2023-04-10T03:43:31;102085.78;;;7.27;74.64
75418;BME280;63997;52.112;5.420;2023-04-10T03:45:58;102087.66;;;7.26;74.63
75418;BME280;63997;52.112;5.420;2023-04-10T03:48:24;102081.84;;;7.24;74.46
75418;BME280;63997;52.112;5.420;2023-04-10T03:50:53;102080.22;;;7.23;74.61
75418;BME280;63997;52.112;5.420;2023-04-10T03:53:20;102084.22;;;7.21;74.49
75418;BME280;63997;52.112;5.420;2023-04-10T03:55:47;102083.69;;;7.19;74.71
75418;BME280;63997;52.112;5.420;2023-04-10T03:58:13;102074.94;;;7.18;74.55
75418;BME280;63997;52.112;5.420;2023-04-10T04:00:39;102069.66;;;7.13;74.55
75418;BME280;63997;52.112;5.420;2023-04-10T04:03:06;102072.31;;;7.13;74.53
75418;BME280;63997;52.112;5.420;2023-04-10T04:05:34;102067.81;;;7.13;74.28
75418;BME280;63997;52.112;5.420;2023-04-10T04:08:00;102059.88;;;7.13;74.36
75418;BME280;63997;52.112;5.420;2023-04-10T04:10:28;102055.63;;;7.18;74.32
75418;BME280;63997;52.112;5.420;2023-04-10T04:12:55;102045.84;;;7.23;74.33
75418;BME280;63997;52.112;5.420;2023-04-10T04:15:22;102045.31;;;7.26;74.34
75418;BME280;63997;52.112;5.420;2023-04-10T04:17:49;102053.53;;;7.25;73.96
75418;BME280;63997;52.112;5.420;2023-04-10T04:20:16;102051.66;;;7.25;74.18
75418;BME280;63997;52.112;5.420;2023-04-10T04:22:45;102043.97;;;7.24;74.12
75418;BME280;63997;52.112;5.420;2023-04-10T04:25:12;102047.69;;;7.23;73.99
75418;BME280;63997;52.112;5.420;2023-04-10T04:27:38;102055.09;;;7.21;74.11
75418;BME280;63997;52.112;5.420;2023-04-10T04:30:05;102055.63;;;7.18;74.21
75418;BME280;63997;52.112;5.420;2023-04-10T04:32:31;102048.75;;;7.11;74.27
75418;BME280;63997;52.112;5.420;2023-04-10T04:34:58;102059.09;;;7.08;74.50
75418;BME280;63997;52.112;5.420;2023-04-10T04:37:24;102054.03;;;7.06;74.61
75418;BME280;63997;52.112;5.420;2023-04-10T04:39:51;102044.78;;;7.04;74.72
75418;BME280;63997;52.112;5.420;2023-04-10T04:42:17;102037.94;;;7.03;74.84
75418;BME280;63997;52.112;5.420;2023-04-10T04:44:44;102041.88;;;7.00;74.92
75418;BME280;63997;52.112;5.420;2023-04-10T04:47:10;102039.22;;;7.00;74.96
75418;BME280;63997;52.112;5.420;2023-04-10T04:49:36;102035.53;;;7.01;74.94
75418;BME280;63997;52.112;5.420;2023-04-10T04:52:03;102033.16;;;7.05;74.85
75418;BME280;63997;52.112;5.420;2023-04-10T04:54:29;102032.38;;;7.09;74.70
75418;BME280;63997;52.112;5.420;2023-04-10T04:56:56;102032.63;;;7.08;74.52
75418;BME280;63997;52.112;5.420;2023-04-10T04:59:22;102034.50;;;7.07;74.48
75418;BME280;63997;52.112;5.420;2023-04-10T05:01:49;102037.38;;;7.06;74.70
75418;BME280;63997;52.112;5.420;2023-04-10T05:04:16;102039.00;;;7.02;74.84
75418;BME280;63997;52.112;5.420;2023-04-10T05:06:43;102034.50;;;6.97;74.73
75418;BME280;63997;52.112;5.420;2023-04-10T05:09:09;102035.28;;;6.98;74.85
75418;BME280;63997;52.112;5.420;2023-04-10T05:11:36;102035.00;;;6.99;74.38
75418;BME280;63997;52.112;5.420;2023-04-10T05:14:02;102026.78;;;7.06;74.61
75418;BME280;63997;52.112;5.420;2023-04-10T05:16:29;102020.72;;;7.05;74.39
75418;BME280;63997;52.112;5.420;2023-04-10T05:18:56;102023.91;;;7.07;74.03
75418;BME280;63997;52.112;5.420;2023-04-10T05:21:23;102027.06;;;7.09;74.33
75418;BME280;63997;52.112;5.420;2023-04-10T05:23:49;102022.84;;;7.13;74.01
75418;BME280;63997;52.112;5.420;2023-04-10T05:26:16;102026.53;;;7.18;73.76
75418;BME280;63997;52.112;5.420;2023-04-10T05:28:42;102031.28;;;7.21;73.86
75418;BME280;63997;52.112;5.420;2023-04-10T05:31:08;102029.94;;;7.23;74.00
75418;BME280;63997;52.112;5.420;2023-04-10T05:33:35;102022.81;;;7.24;73.92
75418;BME280;63997;52.112;5.420;2023-04-10T05:36:01;102024.41;;;7.25;73.93
75418;BME280;63997;52.112;5.420;2023-04-10T05:38:28;102020.44;;;7.32;73.67
75418;BME280;63997;52.112;5.420;2023-04-10T05:40:54;102017.78;;;7.37;73.66
75418;BME280;63997;52.112;5.420;2023-04-10T05:43:21;102016.41;;;7.45;73.13
75418;BME280;63997;52.112;5.420;2023-04-10T05:45:47;102013.47;;;7.52;73.12
75418;BME280;63997;52.112;5.420;2023-04-10T05:48:14;102020.63;;;7.56;73.05
75418;BME280;63997;52.112;5.420;2023-04-10T05:50:40;102016.66;;;7.64;72.55
75418;BME280;63997;52.112;5.420;2023-04-10T05:53:11;102016.09;;;7.67;72.62
75418;BME280;63997;52.112;5.420;2023-04-10T05:55:38;102019.53;;;7.73;72.47
75418;BME280;63997;52.112;5.420;2023-04-10T05:58:05;102011.84;;;7.76;72.74
75418;BME280;63997;52.112;5.420;2023-04-10T06:00:31;102011.03;;;7.81;72.72
75418;BME280;63997;52.112;5.420;2023-04-10T06:02:57;102011.25;;;7.84;72.42
75418;BME280;63997;52.112;5.420;2023-04-10T06:05:24;102006.22;;;7.88;72.26
75418;BME280;63997;52.112;5.420;2023-04-10T06:07:51;102001.97;;;7.92;72.24
75418;BME280;63997;52.112;5.420;2023-04-10T06:10:18;102009.34;;;8.00;72.35
75418;BME280;63997;52.112;5.420;2023-04-10T06:12:46;101999.00;;;8.04;72.13
75418;BME280;63997;52.112;5.420;2023-04-10T06:15:13;101997.13;;;8.09;71.64
75418;BME280;63997;52.112;5.420;2023-04-10T06:17:42;101996.03;;;8.15;71.75
75418;BME280;63997;52.112;5.420;2023-04-10T06:20:10;101984.84;;;8.23;72.01
75418;BME280;63997;52.112;5.420;2023-04-10T06:22:36;101991.69;;;8.30;71.64
75418;BME280;63997;52.112;5.420;2023-04-10T06:25:03;101982.91;;;8.34;71.76
75418;BME280;63997;52.112;5.420;2023-04-10T06:27:33;101984.25;;;8.42;71.44
75418;BME280;63997;52.112;5.420;2023-04-10T06:30:03;101970.38;;;8.50;71.24
75418;BME280;63997;52.112;5.420;2023-04-10T06:32:30;101965.53;;;8.57;70.80
75418;BME280;63997;52.112;5.420;2023-04-10T06:34:57;101967.63;;;8.65;70.14
75418;BME280;63997;52.112;5.420;2023-04-10T06:37:30;101952.16;;;8.72;70.25
75418;BME280;63997;52.112;5.420;2023-04-10T06:40:07;101947.63;;;8.78;69.91
75418;BME280;63997;52.112;5.420;2023-04-10T06:42:35;101948.06;;;8.85;69.87
75418;BME280;63997;52.112;5.420;2023-04-10T06:45:02;101946.41;;;8.94;69.54
75418;BME280;63997;52.112;5.420;2023-04-10T06:47:29;101943.66;;;9.05;69.45
75418;BME280;63997;52.112;5.420;2023-04-10T06:49:57;101936.94;;;9.12;69.47
75418;BME280;63997;52.112;5.420;2023-04-10T06:52:23;101936.09;;;9.17;68.56
75418;BME280;63997;52.112;5.420;2023-04-10T06:54:49;101929.88;;;9.26;69.05
75418;BME280;63997;52.112;5.420;2023-04-10T06:57:16;101923.38;;;9.38;68.38
75418;BME280;63997;52.112;5.420;2023-04-10T06:59:44;101918.22;;;9.46;67.51
75418;BME280;63997;52.112;5.420;2023-04-10T07:02:10;101917.88;;;9.53;66.42
75418;BME280;63997;52.112;5.420;2023-04-10T07:04:37;101922.84;;;9.60;66.04
75418;BME280;63997;52.112;5.420;2023-04-10T07:07:06;101915.03;;;9.68;66.06
75418;BME280;63997;52.112;5.420;2023-04-10T07:09:35;101908.00;;;9.77;66.55
75418;BME280;63997;52.112;5.420;2023-04-10T07:12:01;101894.84;;;9.86;65.95
75418;BME280;63997;52.112;5.420;2023-04-10T07:14:28;101890.41;;;10.00;65.92
75418;BME280;63997;52.112;5.420;2023-04-10T07:16:54;101887.00;;;10.14;64.83
75418;BME280;63997;52.112;5.420;2023-04-10T07:19:20;101877.44;;;10.31;64.12
75418;BME280;63997;52.112;5.420;2023-04-10T07:21:47;101874.53;;;10.47;63.94
75418;BME280;63997;52.112;5.420;2023-04-10T07:24:15;101870.88;;;10.43;63.68
75418;BME280;63997;52.112;5.420;2023-04-10T07:26:43;101874.44;;;10.52;64.69
75418;BME280;63997;52.112;5.420;2023-04-10T07:29:11;101860.66;;;10.64;63.42
75418;BME280;63997;52.112;5.420;2023-04-10T07:31:40;101859.88;;;10.77;62.96
75418;BME280;63997;52.112;5.420;2023-04-10T07:34:09;101856.72;;;10.89;63.39
75418;BME280;63997;52.112;5.420;2023-04-10T07:36:37;101854.66;;;10.99;62.49
75418;BME280;63997;52.112;5.420;2023-04-10T07:39:03;101857.91;;;11.10;62.66
75418;BME280;63997;52.112;5.420;2023-04-10T07:41:30;101850.59;;;11.29;62.18
75418;BME280;63997;52.112;5.420;2023-04-10T07:43:56;101848.94;;;11.56;62.84
75418;BME280;63997;52.112;5.420;2023-04-10T07:46:22;101842.81;;;11.69;60.81
75418;BME280;63997;52.112;5.420;2023-04-10T07:48:49;101839.16;;;12.01;59.65
75418;BME280;63997;52.112;5.420;2023-04-10T07:51:15;101842.31;;;12.34;58.25
75418;BME280;63997;52.112;5.420;2023-04-10T07:53:42;101831.69;;;12.83;57.76
75418;BME280;63997;52.112;5.420;2023-04-10T07:56:14;101837.72;;;12.97;56.57
75418;BME280;63997;52.112;5.420;2023-04-10T07:58:42;101834.50;;;12.78;56.86
75418;BME280;63997;52.112;5.420;2023-04-10T08:01:08;101826.31;;;12.65;56.85
75418;BME280;63997;52.112;5.420;2023-04-10T08:03:39;101810.09;;;12.22;58.65
75418;BME280;63997;52.112;5.420;2023-04-10T08:06:10;101812.06;;;12.08;58.57
75418;BME280;63997;52.112;5.420;2023-04-10T08:08:38;101818.75;;;11.97;59.71
75418;BME280;63997;52.112;5.420;2023-04-10T08:11:20;101819.28;;;11.85;59.35
75418;BME280;63997;52.112;5.420;2023-04-10T08:13:46;101821.38;;;11.74;59.97
75418;BME280;63997;52.112;5.420;2023-04-10T08:16:13;101817.84;;;11.65;60.18
75418;BME280;63997;52.112;5.420;2023-04-10T08:18:39;101810.63;;;11.65;61.48
75418;BME280;63997;52.112;5.420;2023-04-10T08:21:06;101809.53;;;11.66;61.73
75418;BME280;63997;52.112;5.420;2023-04-10T08:23:32;101807.53;;;11.72;59.00
75418;BME280;63997;52.112;5.420;2023-04-10T08:25:58;101810.00;;;11.82;60.61
75418;BME280;63997;52.112;5.420;2023-04-10T08:28:25;101813.56;;;12.00;60.34
75418;BME280;63997;52.112;5.420;2023-04-10T08:30:52;101812.31;;;11.98;59.92
75418;BME280;63997;52.112;5.420;2023-04-10T08:33:18;101814.59;;;12.13;59.64
75418;BME280;63997;52.112;5.420;2023-04-10T08:35:48;101795.44;;;12.11;59.14
75418;BME280;63997;52.112;5.420;2023-04-10T08:38:14;101786.31;;;12.03;59.30
75418;BME280;63997;52.112;5.420;2023-04-10T08:40:41;101781.88;;;11.99;59.88
75418;BME280;63997;52.112;5.420;2023-04-10T08:43:09;101780.91;;;11.95;61.38
75418;BME280;63997;52.112;5.420;2023-04-10T08:45:36;101782.63;;;11.90;59.70
75418;BME280;63997;52.112;5.420;2023-04-10T08:48:04;101773.03;;;11.89;60.39
75418;BME280;63997;52.112;5.420;2023-04-10T08:50:32;101775.34;;;11.82;60.13
75418;BME280;63997;52.112;5.420;2023-04-10T08:53:06;101776.53;;;11.76;61.20
75418;BME280;63997;52.112;5.420;2023-04-10T08:55:34;101774.50;;;11.73;61.37
75418;BME280;63997;52.112;5.420;2023-04-10T08:58:00;101774.31;;;11.70;61.45
75418;BME280;63997;52.112;5.420;2023-04-10T09:00:27;101781.00;;;11.67;60.66
75418;BME280;63997;52.112;5.420;2023-04-10T09:02:54;101776.19;;;11.69;61.87
75418;BME280;63997;52.112;5.420;2023-04-10T09:05:26;101774.19;;;11.75;61.32
75418;BME280;63997;52.112;5.420;2023-04-10T09:07:54;101774.97;;;11.75;61.29
75418;BME280;63997;52.112;5.420;2023-04-10T09:10:21;101769.53;;;11.80;62.03
75418;BME280;63997;52.112;5.420;2023-04-10T09:12:48;101759.38;;;11.82;61.76
75418;BME280;63997;52.112;5.420;2023-04-10T09:15:15;101752.47;;;11.81;60.60
75418;BME280;63997;52.112;5.420;2023-04-10T09:18:01;101745.84;;;11.79;62.07
75418;BME280;63997;52.112;5.420;2023-04-10T09:20:30;101741.59;;;11.78;61.63
75418;BME280;63997;52.112;5.420;2023-04-10T09:22:57;101735.00;;;11.75;62.02
75418;BME280;63997;52.112;5.420;2023-04-10T09:25:33;101741.91;;;11.76;60.99
75418;BME280;63997;52.112;5.420;2023-04-10T09:28:04;101742.53;;;11.73;61.20
75418;BME280;63997;52.112;5.420;2023-04-10T09:30:33;101729.19;;;11.73;63.01
75418;BME280;63997;52.112;5.420;2023-04-10T09:33:01;101723.25;;;11.76;62.23
75418;BME280;63997;52.112;5.420;2023-04-10T09:35:36;101723.25;;;11.76;62.08
75418;BME280;63997;52.112;5.420;2023-04-10T09:38:17;101714.06;;;11.82;61.66
75418;BME280;63997;52.112;5.420;2023-04-10T09:40:45;101707.03;;;11.86;62.03
75418;BME280;63997;52.112;5.420;2023-04-10T09:43:19;101708.00;;;11.90;62.33
75418;BME280;63997;52.112;5.420;2023-04-10T09:45:54;101695.59;;;11.95;62.48
75418;BME280;63997;52.112;5.420;2023-04-10T09:48:26;101693.31;;;12.02;62.83
75418;BME280;63997;52.112;5.420;2023-04-10T09:50:53;101682.81;;;12.05;61.18
75418;BME280;63997;52.112;5.420;2023-04-10T09:53:20;101678.91;;;12.11;61.76
75418;BME280;63997;52.112;5.420;2023-04-10T09:55:48;101677.38;;;12.19;61.76
75418;BME280;63997;52.112;5.420;2023-04-10T09:58:15;101676.59;;;12.27;62.22
75418;BME280;63997;52.112;5.420;2023-04-10T10:00:46;101674.75;;;12.36;62.21
75418;BME280;63997;52.112;5.420;2023-04-10T10:03:15;101671.31;;;12.44;62.50
75418;BME280;63997;52.112;5.420;2023-04-10T10:05:44;101662.56;;;12.53;61.71
75418;BME280;63997;52.112;5.420;2023-04-10T10:08:13;101659.75;;;12.58;60.68
75418;BME280;63997;52.112;5.420;2023-04-10T10:10:53;101653.31;;;12.59;62.32
75418;BME280;63997;52.112;5.420;2023-04-10T10:13:22;101660.22;;;12.68;62.12
75418;BME280;63997;52.112;5.420;2023-04-10T10:16:09;101653.31;;;12.76;61.66
75418;BME280;63997;52.112;5.420;2023-04-10T10:18:52;101646.53;;;12.79;60.59
75418;BME280;63997;52.112;5.420;2023-04-10T10:21:22;101642.63;;;12.85;60.73
75418;BME280;63997;52.112;5.420;2023-04-10T10:23:50;101640.56;;;12.90;60.33
75418;BME280;63997;52.112;5.420;2023-04-10T10:26:20;101637.13;;;12.98;62.00
75418;BME280;63997;52.112;5.420;2023-04-10T10:28:50;101626.44;;;13.07;61.25
75418;BME280;63997;52.112;5.420;2023-04-10T10:31:24;101615.91;;;13.11;60.74
75418;BME280;63997;52.112;5.420;2023-04-10T10:33:51;101611.69;;;13.10;59.94
75418;BME280;63997;52.112;5.420;2023-04-10T10:36:18;101610.88;;;13.18;60.57
75418;BME280;63997;52.112;5.420;2023-04-10T10:39:12;101605.06;;;13.33;60.05
75418;BME280;63997;52.112;5.420;2023-04-10T10:41:53;101600.31;;;13.47;59.87
75418;BME280;63997;52.112;5.420;2023-04-10T10:44:45;101608.88;;;13.70;61.06
75418;BME280;63997;52.112;5.420;2023-04-10T10:47:16;101599.22;;;13.78;60.14
75418;BME280;63997;52.112;5.420;2023-04-10T10:49:55;101592.59;;;13.84;58.01
75418;BME280;63997;52.112;5.420;2023-04-10T10:57:58;101577.53;;;14.09;58.98
75418;BME280;63997;52.112;5.420;2023-04-10T11:05:58;101560.28;;;14.48;57.38
75418;BME280;63997;52.112;5.420;2023-04-10T11:10:58;101543.88;;;14.71;56.41
75418;BME280;63997;52.112;5.420;2023-04-10T11:13:27;101536.22;;;14.81;54.90
75418;BME280;63997;52.112;5.420;2023-04-10T11:15:55;101527.84;;;14.83;56.08
75418;BME280;63997;52.112;5.420;2023-04-10T11:21:28;101524.91;;;15.33;56.71
75418;BME280;63997;52.112;5.420;2023-04-10T11:31:39;101506.22;;;15.00;56.37
75418;BME280;63997;52.112;5.420;2023-04-10T11:34:06;101504.19;;;14.97;55.79
75418;BME280;63997;52.112;5.420;2023-04-10T11:36:34;101492.72;;;15.09;57.01
75418;BME280;63997;52.112;5.420;2023-04-10T11:39:05;101501.44;;;15.18;56.82
75418;BME280;63997;52.112;5.420;2023-04-10T11:41:36;101490.38;;;15.20;55.87
75418;BME280;63997;52.112;5.420;2023-04-10T11:44:05;101490.38;;;15.20;55.89
75418;BME280;63997;52.112;5.420;2023-04-10T11:46:46;101472.66;;;15.40;55.97
75418;BME280;63997;52.112;5.420;2023-04-10T11:49:24;101466.50;;;15.51;56.31
75418;BME280;63997;52.112;5.420;2023-04-10T11:51:51;101476.78;;;15.49;54.47
75418;BME280;63997;52.112;5.420;2023-04-10T11:54:20;101470.63;;;15.49;55.35
75418;BME280;63997;52.112;5.420;2023-04-10T11:59:48;101457.47;;;15.44;57.13
75418;BME280;63997;52.112;5.420;2023-04-10T12:02:16;101456.91;;;15.63;55.39
75418;BME280;63997;52.112;5.420;2023-04-10T12:04:43;101462.59;;;15.73;57.68
75418;BME280;63997;52.112;5.420;2023-04-10T12:07:10;101451.94;;;15.89;56.45
75418;BME280;63997;52.112;5.420;2023-04-10T12:09:36;101440.75;;;15.87;54.64
75418;BME280;63997;52.112;5.420;2023-04-10T12:12:04;101440.44;;;15.89;54.84
75418;BME280;63997;52.112;5.420;2023-04-10T12:14:35;101432.66;;;15.99;54.04
75418;BME280;63997;52.112;5.420;2023-04-10T12:17:05;101427.75;;;16.01;55.38
75418;BME280;63997;52.112;5.420;2023-04-10T12:19:33;101426.09;;;15.97;55.19
75418;BME280;63997;52.112;5.420;2023-04-10T12:22:00;101426.19;;;16.00;52.84
75418;BME280;63997;52.112;5.420;2023-04-10T12:24:47;101417.00;;;16.01;54.38
75418;BME280;63997;52.112;5.420;2023-04-10T12:27:18;101409.63;;;15.98;55.64
75418;BME280;63997;52.112;5.420;2023-04-10T12:29:45;101409.69;;;15.86;54.28
75418;BME280;63997;52.112;5.420;2023-04-10T12:32:12;101410.03;;;15.84;54.20
75418;BME280;63997;52.112;5.420;2023-04-10T12:34:39;101406.88;;;15.82;54.86
75418;BME280;63997;52.112;5.420;2023-04-10T12:37:06;101388.56;;;15.84;53.30
75418;BME280;63997;52.112;5.420;2023-04-10T12:39:39;101381.97;;;15.82;53.63
75418;BME280;63997;52.112;5.420;2023-04-10T12:42:15;101380.41;;;15.81;53.50
75418;BME280;63997;52.112;5.420;2023-04-10T12:44:58;101373.06;;;15.78;54.75
75418;BME280;63997;52.112;5.420;2023-04-10T12:47:27;101371.06;;;15.75;54.12
75418;BME280;63997;52.112;5.420;2023-04-10T12:50:08;101365.56;;;15.71;55.18
75418;BME280;63997;52.112;5.420;2023-04-10T12:52:41;101358.91;;;15.65;54.45
75418;BME280;63997;52.112;5.420;2023-04-10T12:55:18;101354.78;;;15.55;54.02
75418;BME280;63997;52.112;5.420;2023-04-10T12:57:47;101354.13;;;15.46;55.44
75418;BME280;63997;52.112;5.420;2023-04-10T13:00:16;101339.28;;;15.37;54.35
75418;BME280;63997;52.112;5.420;2023-04-10T13:02:43;101347.56;;;15.31;54.90
75418;BME280;63997;52.112;5.420;2023-04-10T13:05:09;101333.97;;;15.24;54.58
75418;BME280;63997;52.112;5.420;2023-04-10T13:07:37;101315.44;;;15.19;54.31
75418;BME280;63997;52.112;5.420;2023-04-10T13:10:05;101312.69;;;15.16;54.03
75418;BME280;63997;52.112;5.420;2023-04-10T13:12:33;101312.22;;;15.14;54.18
75418;BME280;63997;52.112;5.420;2023-04-10T13:15:04;101303.41;;;15.13;54.83
75418;BME280;63997;52.112;5.420;2023-04-10T13:17:32;101299.50;;;15.11;54.85
75418;BME280;63997;52.112;5.420;2023-04-10T13:19:58;101301.84;;;15.12;55.15
75418;BME280;63997;52.112;5.420;2023-04-10T13:22:25;101306.06;;;15.13;53.94
75418;BME280;63997;52.112;5.420;2023-04-10T13:24:51;101298.72;;;15.10;55.30
75418;BME280;63997;52.112;5.420;2023-04-10T13:27:18;101303.97;;;15.06;55.65
75418;BME280;63997;52.112;5.420;2023-04-10T13:29:44;101294.81;;;15.07;56.39
75418;BME280;63997;52.112;5.420;2023-04-10T13:32:11;101296.13;;;15.14;55.09
75418;BME280;63997;52.112;5.420;2023-04-10T13:34:37;101291.31;;;15.19;55.42
75418;BME280;63997;52.112;5.420;2023-04-10T13:37:03;101287.09;;;15.18;56.08
75418;BME280;63997;52.112;5.420;2023-04-10T13:39:30;101277.31;;;15.10;55.69